sensor_id;sensor_type;location;lat;lon;timestamp;P1;durP1;ratioP1;P2;durP2;ratioP2
29728;SDS011;20055;51.498;11.960;2022-10-31T00:00:22;35.17;;;14.05;;
29728;SDS011;20055;51.498;11.960;2022-10-31T00:02:49;39.15;;;15.88;;
29728;SDS011;20055;51.498;11.960;2022-10-31T00:05:15;33.83;;;15.60;;
29728;SDS011;20055;51.498;11.960;2022-10-31T00:07:41;30.80;;;14.23;;
29728;SDS011;20055;51.498;11.960;2022-10-31T00:10:07;35.20;;;14.38;;
29728;SDS011;20055;51.498;11.960;2022-10-31T00:12:34;32.20;;;12.55;;
29728;SDS011;20055;51.498;11.960;2022-10-31T00:15:00;36.13;;;14.15;;
29728;SDS011;20055;51.498;11.960;2022-10-31T00:17:26;30.65;;;13.13;;
29728;SDS011;20055;51.498;11.960;2022-10-31T00:19:52;26.67;;;12.85;;
29728;SDS011;20055;51.498;11.960;2022-10-31T00:22:19;24.05;;;13.63;;
29728;SDS011;20055;51.498;11.960;2022-10-31T00:24:45;25.73;;;12.75;;
29728;SDS011;20055;51.498;11.960;2022-10-31T00:27:11;36.90;;;16.70;;
29728;SDS011;20055;51.498;11.960;2022-10-31T00:29:37;35.45;;;18.13;;
29728;SDS011;20055;51.498;11.960;2022-10-31T00:32:04;33.72;;;14.65;;
29728;SDS011;20055;51.498;11.960;2022-10-31T00:34:30;46.28;;;14.55;;
29728;SDS011;20055;51.498;11.960;2022-10-31T00:36:59;28.65;;;13.02;;
29728;SDS011;20055;51.498;11.960;2022-10-31T00:39:25;31.70;;;13.00;;
29728;SDS011;20055;51.498;11.960;2022-10-31T00:41:51;30.17;;;12.48;;
29728;SDS011;20055;51.498;11.960;2022-10-31T00:44:18;26.83;;;11.52;;
29728;SDS011;20055;51.498;11.960;2022-10-31T00:46:44;25.17;;;11.35;;
29728;SDS011;20055;51.498;11.960;2022-10-31T00:49:10;33.15;;;11.20;;
29728;SDS011;20055;51.498;11.960;2022-10-31T00:51:37;24.00;;;11.35;;
29728;SDS011;20055;51.498;11.960;2022-10-31T00:54:03;38.15;;;15.00;;
29728;SDS011;20055;51.498;11.960;2022-10-31T00:56:29;32.22;;;12.68;;
29728;SDS011;20055;51.498;11.960;2022-10-31T00:58:58;34.30;;;11.25;;
29728;SDS011;20055;51.498;11.960;2022-10-31T01:01:25;24.02;;;10.77;;
29728;SDS011;20055;51.498;11.960;2022-10-31T01:03:51;23.70;;;10.65;;
29728;SDS011;20055;51.498;11.960;2022-10-31T01:06:17;23.50;;;10.60;;
29728;SDS011;20055;51.498;11.960;2022-10-31T01:08:43;31.10;;;12.30;;
29728;SDS011;20055;51.498;11.960;2022-10-31T01:11:16;23.85;;;12.02;;
29728;SDS011;20055;51.498;11.960;2022-10-31T01:13:44;24.52;;;10.23;;
29728;SDS011;20055;51.498;11.960;2022-10-31T01:16:12;34.05;;;12.10;;
29728;SDS011;20055;51.498;11.960;2022-10-31T01:18:39;25.15;;;11.00;;
29728;SDS011;20055;51.498;11.960;2022-10-31T01:21:11;26.48;;;10.40;;
29728;SDS011;20055;51.498;11.960;2022-10-31T01:23:39;21.75;;;10.35;;
29728;SDS011;20055;51.498;11.960;2022-10-31T01:26:21;25.40;;;10.80;;
29728;SDS011;20055;51.498;11.960;2022-10-31T01:29:07;31.08;;;12.45;;
29728;SDS011;20055;51.498;11.960;2022-10-31T01:31:35;31.48;;;12.27;;
29728;SDS011;20055;51.498;11.960;2022-10-31T01:34:04;20.92;;;10.68;;
29728;SDS011;20055;51.498;11.960;2022-10-31T01:36:32;32.42;;;10.85;;
29728;SDS011;20055;51.498;11.960;2022-10-31T01:39:04;25.45;;;10.07;;
29728;SDS011;20055;51.498;11.960;2022-10-31T01:41:43;28.17;;;11.82;;
29728;SDS011;20055;51.498;11.960;2022-10-31T01:47:26;28.98;;;11.25;;
29728;SDS011;20055;51.498;11.960;2022-10-31T01:49:40;21.27;;;11.25;;
29728;SDS011;20055;51.498;11.960;2022-10-31T01:52:14;28.63;;;10.18;;
29728;SDS011;20055;51.498;11.960;2022-10-31T01:54:53;21.35;;;11.55;;
29728;SDS011;20055;51.498;11.960;2022-10-31T01:57:27;27.15;;;11.25;;
29728;SDS011;20055;51.498;11.960;2022-10-31T01:59:56;25.92;;;12.40;;
29728;SDS011;20055;51.498;11.960;2022-10-31T02:02:27;28.33;;;10.70;;
29728;SDS011;20055;51.498;11.960;2022-10-31T02:04:55;24.55;;;11.63;;
29728;SDS011;20055;51.498;11.960;2022-10-31T02:07:31;27.90;;;11.05;;
29728;SDS011;20055;51.498;11.960;2022-10-31T02:10:04;28.85;;;11.65;;
29728;SDS011;20055;51.498;11.960;2022-10-31T02:12:31;28.27;;;12.30;;
29728;SDS011;20055;51.498;11.960;2022-10-31T02:15:01;28.85;;;12.38;;
29728;SDS011;20055;51.498;11.960;2022-10-31T02:17:29;26.45;;;12.82;;
29728;SDS011;20055;51.498;11.960;2022-10-31T02:20:02;23.67;;;10.27;;
29728;SDS011;20055;51.498;11.960;2022-10-31T02:25:34;35.45;;;11.45;;
29728;SDS011;20055;51.498;11.960;2022-10-31T02:28:23;21.25;;;10.85;;
29728;SDS011;20055;51.498;11.960;2022-10-31T02:31:13;28.15;;;10.05;;
29728;SDS011;20055;51.498;11.960;2022-10-31T02:33:59;24.75;;;10.75;;
29728;SDS011;20055;51.498;11.960;2022-10-31T02:36:43;25.77;;;10.23;;
29728;SDS011;20055;51.498;11.960;2022-10-31T02:42:18;30.98;;;11.50;;
29728;SDS011;20055;51.498;11.960;2022-10-31T02:45:03;31.02;;;12.40;;
29728;SDS011;20055;51.498;11.960;2022-10-31T02:47:41;23.42;;;10.18;;
29728;SDS011;20055;51.498;11.960;2022-10-31T02:50:14;25.27;;;10.20;;
29728;SDS011;20055;51.498;11.960;2022-10-31T02:52:50;25.45;;;11.27;;
29728;SDS011;20055;51.498;11.960;2022-10-31T02:57:57;25.85;;;11.38;;
29728;SDS011;20055;51.498;11.960;2022-10-31T03:00:29;25.33;;;10.82;;
29728;SDS011;20055;51.498;11.960;2022-10-31T03:10:59;24.48;;;10.63;;
29728;SDS011;20055;51.498;11.960;2022-10-31T03:18:39;19.52;;;10.05;;
29728;SDS011;20055;51.498;11.960;2022-10-31T03:21:12;26.40;;;10.13;;
29728;SDS011;20055;51.498;11.960;2022-10-31T03:23:40;29.52;;;10.73;;
29728;SDS011;20055;51.498;11.960;2022-10-31T03:26:18;33.35;;;9.65;;
29728;SDS011;20055;51.498;11.960;2022-10-31T03:28:54;20.55;;;10.52;;
29728;SDS011;20055;51.498;11.960;2022-10-31T03:31:36;21.90;;;10.55;;
29728;SDS011;20055;51.498;11.960;2022-10-31T03:34:09;38.83;;;11.27;;
29728;SDS011;20055;51.498;11.960;2022-10-31T03:36:36;21.80;;;10.63;;
29728;SDS011;20055;51.498;11.960;2022-10-31T03:39:05;23.27;;;9.98;;
29728;SDS011;20055;51.498;11.960;2022-10-31T03:41:38;23.83;;;11.02;;
29728;SDS011;20055;51.498;11.960;2022-10-31T03:44:13;26.10;;;11.07;;
29728;SDS011;20055;51.498;11.960;2022-10-31T03:46:42;21.58;;;11.18;;
29728;SDS011;20055;51.498;11.960;2022-10-31T03:49:09;22.95;;;10.98;;
29728;SDS011;20055;51.498;11.960;2022-10-31T03:51:39;24.73;;;11.35;;
29728;SDS011;20055;51.498;11.960;2022-10-31T03:54:40;30.33;;;10.80;;
29728;SDS011;20055;51.498;11.960;2022-10-31T04:00:09;31.10;;;14.18;;
29728;SDS011;20055;51.498;11.960;2022-10-31T04:02:49;23.52;;;11.60;;
29728;SDS011;20055;51.498;11.960;2022-10-31T04:05:17;29.67;;;12.55;;
29728;SDS011;20055;51.498;11.960;2022-10-31T04:07:46;32.20;;;11.80;;
29728;SDS011;20055;51.498;11.960;2022-10-31T04:10:15;21.13;;;11.07;;
29728;SDS011;20055;51.498;11.960;2022-10-31T04:12:45;20.77;;;10.57;;
29728;SDS011;20055;51.498;11.960;2022-10-31T04:15:20;23.90;;;11.50;;
29728;SDS011;20055;51.498;11.960;2022-10-31T04:17:49;25.98;;;12.32;;
29728;SDS011;20055;51.498;11.960;2022-10-31T04:20:18;24.45;;;9.65;;
29728;SDS011;20055;51.498;11.960;2022-10-31T04:22:44;22.30;;;11.90;;
29728;SDS011;20055;51.498;11.960;2022-10-31T04:25:10;30.77;;;10.52;;
29728;SDS011;20055;51.498;11.960;2022-10-31T04:27:37;29.77;;;12.88;;
29728;SDS011;20055;51.498;11.960;2022-10-31T04:30:07;24.27;;;12.40;;
29728;SDS011;20055;51.498;11.960;2022-10-31T04:32:37;25.55;;;11.82;;
29728;SDS011;20055;51.498;11.960;2022-10-31T04:35:03;25.50;;;10.68;;
29728;SDS011;20055;51.498;11.960;2022-10-31T04:37:30;32.15;;;11.30;;
29728;SDS011;20055;51.498;11.960;2022-10-31T04:39:56;23.77;;;11.10;;
29728;SDS011;20055;51.498;11.960;2022-10-31T04:42:54;24.05;;;10.40;;
29728;SDS011;20055;51.498;11.960;2022-10-31T04:45:21;24.13;;;10.50;;
29728;SDS011;20055;51.498;11.960;2022-10-31T04:47:50;21.17;;;10.38;;
29728;SDS011;20055;51.498;11.960;2022-10-31T04:50:16;18.90;;;10.85;;
29728;SDS011;20055;51.498;11.960;2022-10-31T04:52:44;25.42;;;10.55;;
29728;SDS011;20055;51.498;11.960;2022-10-31T04:55:14;25.63;;;11.70;;
29728;SDS011;20055;51.498;11.960;2022-10-31T04:58:12;34.05;;;12.07;;
29728;SDS011;20055;51.498;11.960;2022-10-31T05:00:39;31.33;;;12.43;;
29728;SDS011;20055;51.498;11.960;2022-10-31T05:03:05;21.65;;;10.63;;
29728;SDS011;20055;51.498;11.960;2022-10-31T05:05:32;19.38;;;10.00;;
29728;SDS011;20055;51.498;11.960;2022-10-31T05:08:00;26.10;;;10.88;;
29728;SDS011;20055;51.498;11.960;2022-10-31T05:10:29;21.08;;;10.38;;
29728;SDS011;20055;51.498;11.960;2022-10-31T05:12:59;20.17;;;10.57;;
29728;SDS011;20055;51.498;11.960;2022-10-31T05:15:52;22.02;;;9.93;;
29728;SDS011;20055;51.498;11.960;2022-10-31T05:18:44;27.10;;;11.30;;
29728;SDS011;20055;51.498;11.960;2022-10-31T05:21:20;22.95;;;10.85;;
29728;SDS011;20055;51.498;11.960;2022-10-31T05:23:59;25.55;;;10.55;;
29728;SDS011;20055;51.498;11.960;2022-10-31T05:26:25;23.95;;;9.55;;
29728;SDS011;20055;51.498;11.960;2022-10-31T05:28:53;23.17;;;10.23;;
29728;SDS011;20055;51.498;11.960;2022-10-31T05:31:19;29.45;;;10.65;;
29728;SDS011;20055;51.498;11.960;2022-10-31T05:33:47;32.55;;;11.32;;
29728;SDS011;20055;51.498;11.960;2022-10-31T05:36:32;27.02;;;11.77;;
29728;SDS011;20055;51.498;11.960;2022-10-31T05:39:02;22.23;;;10.40;;
29728;SDS011;20055;51.498;11.960;2022-10-31T05:41:38;25.45;;;10.45;;
29728;SDS011;20055;51.498;11.960;2022-10-31T05:44:12;18.67;;;10.05;;
29728;SDS011;20055;51.498;11.960;2022-10-31T05:46:50;18.00;;;9.43;;
29728;SDS011;20055;51.498;11.960;2022-10-31T05:49:36;21.45;;;9.05;;
29728;SDS011;20055;51.498;11.960;2022-10-31T05:52:31;27.13;;;10.57;;
29728;SDS011;20055;51.498;11.960;2022-10-31T05:55:05;25.85;;;10.45;;
29728;SDS011;20055;51.498;11.960;2022-10-31T05:57:31;21.83;;;9.85;;
29728;SDS011;20055;51.498;11.960;2022-10-31T05:59:58;24.33;;;10.57;;
29728;SDS011;20055;51.498;11.960;2022-10-31T06:02:24;20.60;;;11.05;;
29728;SDS011;20055;51.498;11.960;2022-10-31T06:05:12;27.35;;;11.18;;
29728;SDS011;20055;51.498;11.960;2022-10-31T06:07:38;33.17;;;10.77;;
29728;SDS011;20055;51.498;11.960;2022-10-31T06:10:05;25.50;;;11.65;;
29728;SDS011;20055;51.498;11.960;2022-10-31T06:12:33;25.33;;;10.60;;
29728;SDS011;20055;51.498;11.960;2022-10-31T06:15:17;24.27;;;10.70;;
29728;SDS011;20055;51.498;11.960;2022-10-31T06:17:44;19.85;;;10.48;;
29728;SDS011;20055;51.498;11.960;2022-10-31T06:20:22;22.42;;;10.80;;
29728;SDS011;20055;51.498;11.960;2022-10-31T06:22:56;23.42;;;11.20;;
29728;SDS011;20055;51.498;11.960;2022-10-31T06:25:24;30.33;;;10.15;;
29728;SDS011;20055;51.498;11.960;2022-10-31T06:27:52;23.23;;;9.98;;
29728;SDS011;20055;51.498;11.960;2022-10-31T06:30:21;18.52;;;10.20;;
29728;SDS011;20055;51.498;11.960;2022-10-31T06:32:48;20.98;;;9.63;;
29728;SDS011;20055;51.498;11.960;2022-10-31T06:35:15;21.65;;;10.60;;
29728;SDS011;20055;51.498;11.960;2022-10-31T06:37:42;23.13;;;9.65;;
29728;SDS011;20055;51.498;11.960;2022-10-31T06:40:28;17.80;;;9.32;;
29728;SDS011;20055;51.498;11.960;2022-10-31T06:43:09;18.63;;;9.65;;
29728;SDS011;20055;51.498;11.960;2022-10-31T06:45:37;23.08;;;9.48;;
29728;SDS011;20055;51.498;11.960;2022-10-31T06:48:24;19.13;;;9.70;;
29728;SDS011;20055;51.498;11.960;2022-10-31T06:51:09;26.63;;;9.70;;
29728;SDS011;20055;51.498;11.960;2022-10-31T06:53:36;21.38;;;9.73;;
29728;SDS011;20055;51.498;11.960;2022-10-31T06:56:05;18.65;;;9.43;;
29728;SDS011;20055;51.498;11.960;2022-10-31T06:58:36;24.20;;;9.95;;
29728;SDS011;20055;51.498;11.960;2022-10-31T07:01:05;29.63;;;10.40;;
29728;SDS011;20055;51.498;11.960;2022-10-31T07:03:32;24.13;;;10.73;;
29728;SDS011;20055;51.498;11.960;2022-10-31T07:05:58;21.40;;;10.07;;
29728;SDS011;20055;51.498;11.960;2022-10-31T07:08:25;24.52;;;10.38;;
29728;SDS011;20055;51.498;11.960;2022-10-31T07:10:52;24.55;;;10.45;;
29728;SDS011;20055;51.498;11.960;2022-10-31T07:15:53;23.63;;;9.88;;
29728;SDS011;20055;51.498;11.960;2022-10-31T07:18:25;27.10;;;9.63;;
29728;SDS011;20055;51.498;11.960;2022-10-31T07:20:52;27.42;;;10.05;;
29728;SDS011;20055;51.498;11.960;2022-10-31T07:23:20;26.15;;;10.05;;
29728;SDS011;20055;51.498;11.960;2022-10-31T07:26:02;20.55;;;10.35;;
29728;SDS011;20055;51.498;11.960;2022-10-31T07:28:38;22.73;;;10.73;;
29728;SDS011;20055;51.498;11.960;2022-10-31T07:31:05;21.15;;;9.93;;
29728;SDS011;20055;51.498;11.960;2022-10-31T07:33:32;19.70;;;8.43;;
29728;SDS011;20055;51.498;11.960;2022-10-31T07:36:18;21.88;;;9.68;;
29728;SDS011;20055;51.498;11.960;2022-10-31T07:38:47;23.35;;;10.13;;
29728;SDS011;20055;51.498;11.960;2022-10-31T07:41:13;24.13;;;9.88;;
29728;SDS011;20055;51.498;11.960;2022-10-31T07:43:43;23.73;;;10.03;;
29728;SDS011;20055;51.498;11.960;2022-10-31T07:46:31;20.95;;;9.35;;
29728;SDS011;20055;51.498;11.960;2022-10-31T07:49:28;20.23;;;9.80;;
29728;SDS011;20055;51.498;11.960;2022-10-31T07:52:12;20.23;;;9.27;;
29728;SDS011;20055;51.498;11.960;2022-10-31T07:54:57;29.95;;;10.55;;
29728;SDS011;20055;51.498;11.960;2022-10-31T07:57:23;23.13;;;9.77;;
29728;SDS011;20055;51.498;11.960;2022-10-31T07:59:50;21.27;;;10.90;;
29728;SDS011;20055;51.498;11.960;2022-10-31T08:02:17;34.10;;;11.02;;
29728;SDS011;20055;51.498;11.960;2022-10-31T08:05:02;29.52;;;10.60;;
29728;SDS011;20055;51.498;11.960;2022-10-31T08:07:47;18.20;;;9.18;;
29728;SDS011;20055;51.498;11.960;2022-10-31T08:10:19;22.50;;;11.18;;
29728;SDS011;20055;51.498;11.960;2022-10-31T08:12:46;29.10;;;10.52;;
29728;SDS011;20055;51.498;11.960;2022-10-31T08:15:12;22.98;;;10.73;;
29728;SDS011;20055;51.498;11.960;2022-10-31T08:17:38;26.88;;;11.80;;
29728;SDS011;20055;51.498;11.960;2022-10-31T08:20:05;27.13;;;11.07;;
29728;SDS011;20055;51.498;11.960;2022-10-31T08:22:35;25.48;;;10.40;;
29728;SDS011;20055;51.498;11.960;2022-10-31T08:25:01;23.27;;;11.57;;
29728;SDS011;20055;51.498;11.960;2022-10-31T08:27:28;44.92;;;12.75;;
29728;SDS011;20055;51.498;11.960;2022-10-31T08:29:58;27.52;;;12.80;;
29728;SDS011;20055;51.498;11.960;2022-10-31T08:32:24;22.90;;;11.52;;
29728;SDS011;20055;51.498;11.960;2022-10-31T08:34:57;37.95;;;12.27;;
29728;SDS011;20055;51.498;11.960;2022-10-31T08:37:36;40.03;;;12.07;;
29728;SDS011;20055;51.498;11.960;2022-10-31T08:40:04;28.58;;;11.73;;
29728;SDS011;20055;51.498;11.960;2022-10-31T08:42:33;28.75;;;11.48;;
29728;SDS011;20055;51.498;11.960;2022-10-31T08:45:00;28.48;;;11.48;;
29728;SDS011;20055;51.498;11.960;2022-10-31T08:47:26;27.15;;;11.45;;
29728;SDS011;20055;51.498;11.960;2022-10-31T08:49:54;21.40;;;10.63;;
29728;SDS011;20055;51.498;11.960;2022-10-31T08:52:22;24.40;;;10.38;;
29728;SDS011;20055;51.498;11.960;2022-10-31T08:54:51;30.83;;;12.05;;
29728;SDS011;20055;51.498;11.960;2022-10-31T08:57:36;26.50;;;11.27;;
29728;SDS011;20055;51.498;11.960;2022-10-31T09:00:02;34.13;;;13.52;;
29728;SDS011;20055;51.498;11.960;2022-10-31T09:02:44;29.67;;;11.18;;
29728;SDS011;20055;51.498;11.960;2022-10-31T09:05:12;32.40;;;13.55;;
29728;SDS011;20055;51.498;11.960;2022-10-31T09:07:39;43.38;;;14.70;;
29728;SDS011;20055;51.498;11.960;2022-10-31T09:10:05;36.38;;;14.30;;
29728;SDS011;20055;51.498;11.960;2022-10-31T09:12:35;37.63;;;15.13;;
29728;SDS011;20055;51.498;11.960;2022-10-31T09:15:19;36.05;;;12.55;;
29728;SDS011;20055;51.498;11.960;2022-10-31T09:17:50;30.55;;;12.30;;
29728;SDS011;20055;51.498;11.960;2022-10-31T09:20:32;45.25;;;19.80;;
29728;SDS011;20055;51.498;11.960;2022-10-31T09:23:23;42.65;;;18.00;;
29728;SDS011;20055;51.498;11.960;2022-10-31T09:25:49;42.88;;;18.52;;
29728;SDS011;20055;51.498;11.960;2022-10-31T09:28:29;44.22;;;18.52;;
29728;SDS011;20055;51.498;11.960;2022-10-31T09:31:00;53.13;;;18.00;;
29728;SDS011;20055;51.498;11.960;2022-10-31T09:33:47;62.60;;;19.98;;
29728;SDS011;20055;51.498;11.960;2022-10-31T09:36:33;62.97;;;23.27;;
29728;SDS011;20055;51.498;11.960;2022-10-31T09:39:00;48.50;;;19.45;;
29728;SDS011;20055;51.498;11.960;2022-10-31T09:44:36;68.13;;;25.95;;
29728;SDS011;20055;51.498;11.960;2022-10-31T09:47:37;80.72;;;29.13;;
29728;SDS011;20055;51.498;11.960;2022-10-31T09:50:42;78.82;;;30.45;;
29728;SDS011;20055;51.498;11.960;2022-10-31T09:53:34;62.78;;;27.20;;
29728;SDS011;20055;51.498;11.960;2022-10-31T09:56:21;74.90;;;28.17;;
29728;SDS011;20055;51.498;11.960;2022-10-31T09:58:55;60.83;;;26.00;;
29728;SDS011;20055;51.498;11.960;2022-10-31T10:03:56;78.18;;;28.85;;
29728;SDS011;20055;51.498;11.960;2022-10-31T10:06:52;74.72;;;28.02;;
29728;SDS011;20055;51.498;11.960;2022-10-31T10:09:50;75.82;;;27.38;;
29728;SDS011;20055;51.498;11.960;2022-10-31T10:21:22;74.47;;;28.35;;
29728;SDS011;20055;51.498;11.960;2022-10-31T10:24:00;79.18;;;29.50;;
29728;SDS011;20055;51.498;11.960;2022-10-31T10:29:50;76.60;;;28.48;;
29728;SDS011;20055;51.498;11.960;2022-10-31T10:32:24;76.50;;;28.92;;
29728;SDS011;20055;51.498;11.960;2022-10-31T10:34:55;79.60;;;29.48;;
29728;SDS011;20055;51.498;11.960;2022-10-31T10:37:29;78.07;;;27.92;;
29728;SDS011;20055;51.498;11.960;2022-10-31T10:40:01;69.63;;;29.40;;
29728;SDS011;20055;51.498;11.960;2022-10-31T10:43:20;79.43;;;28.95;;
29728;SDS011;20055;51.498;11.960;2022-10-31T10:46:23;76.88;;;28.15;;
29728;SDS011;20055;51.498;11.960;2022-10-31T10:49:31;80.68;;;28.65;;
29728;SDS011;20055;51.498;11.960;2022-10-31T10:55:22;67.72;;;26.30;;
29728;SDS011;20055;51.498;11.960;2022-10-31T10:58:13;72.68;;;27.63;;
29728;SDS011;20055;51.498;11.960;2022-10-31T11:00:40;68.85;;;27.38;;
29728;SDS011;20055;51.498;11.960;2022-10-31T11:03:09;65.60;;;29.17;;
29728;SDS011;20055;51.498;11.960;2022-10-31T11:08:25;63.28;;;26.80;;
29728;SDS011;20055;51.498;11.960;2022-10-31T11:11:07;66.15;;;26.45;;
29728;SDS011;20055;51.498;11.960;2022-10-31T11:13:40;71.15;;;24.85;;
29728;SDS011;20055;51.498;11.960;2022-10-31T11:16:09;73.50;;;29.75;;
29728;SDS011;20055;51.498;11.960;2022-10-31T11:18:39;74.90;;;31.00;;
29728;SDS011;20055;51.498;11.960;2022-10-31T11:21:19;77.05;;;30.00;;
29728;SDS011;20055;51.498;11.960;2022-10-31T11:26:35;70.75;;;29.17;;
29728;SDS011;20055;51.498;11.960;2022-10-31T11:29:11;83.05;;;29.38;;
29728;SDS011;20055;51.498;11.960;2022-10-31T11:31:43;72.00;;;29.05;;
29728;SDS011;20055;51.498;11.960;2022-10-31T11:34:15;67.80;;;26.65;;
29728;SDS011;20055;51.498;11.960;2022-10-31T11:36:49;79.85;;;30.38;;
29728;SDS011;20055;51.498;11.960;2022-10-31T11:39:25;69.85;;;30.30;;
29728;SDS011;20055;51.498;11.960;2022-10-31T11:41:52;70.38;;;29.65;;
29728;SDS011;20055;51.498;11.960;2022-10-31T11:44:23;77.10;;;29.90;;
29728;SDS011;20055;51.498;11.960;2022-10-31T11:46:57;75.50;;;29.75;;
29728;SDS011;20055;51.498;11.960;2022-10-31T11:49:33;87.07;;;34.33;;
29728;SDS011;20055;51.498;11.960;2022-10-31T11:52:04;76.03;;;30.15;;
29728;SDS011;20055;51.498;11.960;2022-10-31T11:54:55;63.22;;;28.20;;
29728;SDS011;20055;51.498;11.960;2022-10-31T11:57:42;77.40;;;30.75;;
29728;SDS011;20055;51.498;11.960;2022-10-31T12:02:51;77.72;;;30.17;;
29728;SDS011;20055;51.498;11.960;2022-10-31T12:05:29;78.63;;;32.08;;
29728;SDS011;20055;51.498;11.960;2022-10-31T12:07:58;70.63;;;30.33;;
29728;SDS011;20055;51.498;11.960;2022-10-31T12:10:28;83.45;;;30.50;;
29728;SDS011;20055;51.498;11.960;2022-10-31T12:13:20;81.53;;;31.00;;
29728;SDS011;20055;51.498;11.960;2022-10-31T12:16:12;90.50;;;31.50;;
29728;SDS011;20055;51.498;11.960;2022-10-31T12:18:49;77.97;;;32.80;;
29728;SDS011;20055;51.498;11.960;2022-10-31T12:24:08;83.70;;;33.72;;
29728;SDS011;20055;51.498;11.960;2022-10-31T12:26:57;90.22;;;32.65;;
29728;SDS011;20055;51.498;11.960;2022-10-31T12:29:49;79.72;;;32.88;;
29728;SDS011;20055;51.498;11.960;2022-10-31T12:38:11;84.63;;;33.25;;
29728;SDS011;20055;51.498;11.960;2022-10-31T12:49:45;91.15;;;33.00;;
29728;SDS011;20055;51.498;11.960;2022-10-31T12:57:52;86.43;;;36.08;;
29728;SDS011;20055;51.498;11.960;2022-10-31T13:00:23;90.35;;;35.00;;
29728;SDS011;20055;51.498;11.960;2022-10-31T13:02:53;87.57;;;34.13;;
29728;SDS011;20055;51.498;11.960;2022-10-31T13:08:24;81.32;;;33.95;;
29728;SDS011;20055;51.498;11.960;2022-10-31T13:11:19;89.85;;;34.03;;
29728;SDS011;20055;51.498;11.960;2022-10-31T13:14:02;86.10;;;34.92;;
29728;SDS011;20055;51.498;11.960;2022-10-31T13:16:38;87.53;;;34.23;;
29728;SDS011;20055;51.498;11.960;2022-10-31T13:21:41;86.68;;;34.70;;
29728;SDS011;20055;51.498;11.960;2022-10-31T13:24:16;77.45;;;31.85;;
29728;SDS011;20055;51.498;11.960;2022-10-31T13:26:54;95.95;;;34.38;;
29728;SDS011;20055;51.498;11.960;2022-10-31T13:29:26;92.63;;;34.17;;
29728;SDS011;20055;51.498;11.960;2022-10-31T13:31:57;87.00;;;35.42;;
29728;SDS011;20055;51.498;11.960;2022-10-31T13:34:25;100.18;;;36.78;;
29728;SDS011;20055;51.498;11.960;2022-10-31T13:45:21;88.43;;;35.20;;
29728;SDS011;20055;51.498;11.960;2022-10-31T13:50:23;96.30;;;36.45;;
29728;SDS011;20055;51.498;11.960;2022-10-31T13:52:51;93.57;;;34.78;;
29728;SDS011;20055;51.498;11.960;2022-10-31T14:01:03;90.05;;;37.53;;
29728;SDS011;20055;51.498;11.960;2022-10-31T14:03:46;84.88;;;36.17;;
29728;SDS011;20055;51.498;11.960;2022-10-31T14:06:22;102.57;;;36.90;;
29728;SDS011;20055;51.498;11.960;2022-10-31T14:08:59;93.13;;;36.95;;
29728;SDS011;20055;51.498;11.960;2022-10-31T14:11:26;100.85;;;39.53;;
29728;SDS011;20055;51.498;11.960;2022-10-31T14:13:54;102.68;;;36.53;;
29728;SDS011;20055;51.498;11.960;2022-10-31T14:16:24;97.80;;;36.92;;
29728;SDS011;20055;51.498;11.960;2022-10-31T14:19:00;106.03;;;37.40;;
29728;SDS011;20055;51.498;11.960;2022-10-31T14:21:31;103.57;;;40.35;;
29728;SDS011;20055;51.498;11.960;2022-10-31T14:24:30;94.67;;;38.07;;
29728;SDS011;20055;51.498;11.960;2022-10-31T14:29:47;91.28;;;37.45;;
29728;SDS011;20055;51.498;11.960;2022-10-31T14:40:04;103.72;;;37.55;;
29728;SDS011;20055;51.498;11.960;2022-10-31T14:48:25;114.78;;;39.13;;
29728;SDS011;20055;51.498;11.960;2022-10-31T14:51:13;103.25;;;40.67;;
29728;SDS011;20055;51.498;11.960;2022-10-31T14:53:54;98.38;;;38.55;;
29728;SDS011;20055;51.498;11.960;2022-10-31T14:59:12;112.50;;;41.50;;
29728;SDS011;20055;51.498;11.960;2022-10-31T15:04:27;127.28;;;40.85;;
29728;SDS011;20055;51.498;11.960;2022-10-31T15:07:12;107.32;;;41.05;;
29728;SDS011;20055;51.498;11.960;2022-10-31T15:10:00;107.55;;;41.78;;
29728;SDS011;20055;51.498;11.960;2022-10-31T15:12:33;102.75;;;41.42;;
29728;SDS011;20055;51.498;11.960;2022-10-31T15:15:13;119.45;;;43.45;;
29728;SDS011;20055;51.498;11.960;2022-10-31T15:18:13;108.28;;;41.85;;
29728;SDS011;20055;51.498;11.960;2022-10-31T15:20:44;116.75;;;42.05;;
29728;SDS011;20055;51.498;11.960;2022-10-31T15:23:14;115.95;;;41.90;;
29728;SDS011;20055;51.498;11.960;2022-10-31T15:25:45;128.25;;;43.30;;
29728;SDS011;20055;51.498;11.960;2022-10-31T15:28:15;116.22;;;45.10;;
29728;SDS011;20055;51.498;11.960;2022-10-31T15:30:50;125.32;;;45.45;;
29728;SDS011;20055;51.498;11.960;2022-10-31T15:33:23;123.57;;;44.40;;
29728;SDS011;20055;51.498;11.960;2022-10-31T15:35:54;114.00;;;42.70;;
29728;SDS011;20055;51.498;11.960;2022-10-31T15:38:26;119.70;;;43.58;;
29728;SDS011;20055;51.498;11.960;2022-10-31T15:40:54;117.28;;;46.13;;
29728;SDS011;20055;51.498;11.960;2022-10-31T15:43:27;149.52;;;50.50;;
29728;SDS011;20055;51.498;11.960;2022-10-31T15:46:02;142.13;;;52.55;;
29728;SDS011;20055;51.498;11.960;2022-10-31T15:48:32;140.93;;;52.45;;
29728;SDS011;20055;51.498;11.960;2022-10-31T15:51:00;154.10;;;56.53;;
29728;SDS011;20055;51.498;11.960;2022-10-31T15:53:35;162.88;;;58.13;;
29728;SDS011;20055;51.498;11.960;2022-10-31T15:56:19;165.25;;;59.60;;
29728;SDS011;20055;51.498;11.960;2022-10-31T15:58:51;180.73;;;62.92;;
29728;SDS011;20055;51.498;11.960;2022-10-31T16:01:23;185.77;;;64.43;;
29728;SDS011;20055;51.498;11.960;2022-10-31T16:04:04;187.30;;;66.10;;
29728;SDS011;20055;51.498;11.960;2022-10-31T16:06:59;190.90;;;65.82;;
29728;SDS011;20055;51.498;11.960;2022-10-31T16:09:27;199.55;;;68.72;;
29728;SDS011;20055;51.498;11.960;2022-10-31T16:11:55;208.55;;;71.53;;
29728;SDS011;20055;51.498;11.960;2022-10-31T16:14:24;210.93;;;71.88;;
29728;SDS011;20055;51.498;11.960;2022-10-31T16:16:54;212.73;;;73.53;;
29728;SDS011;20055;51.498;11.960;2022-10-31T16:19:35;211.88;;;74.70;;
29728;SDS011;20055;51.498;11.960;2022-10-31T16:22:09;206.77;;;70.20;;
29728;SDS011;20055;51.498;11.960;2022-10-31T16:27:21;210.85;;;69.13;;
29728;SDS011;20055;51.498;11.960;2022-10-31T16:29:55;226.07;;;73.45;;
29728;SDS011;20055;51.498;11.960;2022-10-31T16:32:26;208.73;;;72.35;;
29728;SDS011;20055;51.498;11.960;2022-10-31T16:37:34;212.38;;;72.75;;
29728;SDS011;20055;51.498;11.960;2022-10-31T16:40:03;209.23;;;69.10;;
29728;SDS011;20055;51.498;11.960;2022-10-31T16:42:30;198.20;;;70.97;;
29728;SDS011;20055;51.498;11.960;2022-10-31T16:44:56;215.77;;;70.63;;
29728;SDS011;20055;51.498;11.960;2022-10-31T16:47:22;232.23;;;73.35;;
29728;SDS011;20055;51.498;11.960;2022-10-31T16:49:49;240.05;;;73.55;;
29728;SDS011;20055;51.498;11.960;2022-10-31T16:52:15;248.82;;;76.35;;
29728;SDS011;20055;51.498;11.960;2022-10-31T16:54:42;230.77;;;73.93;;
29728;SDS011;20055;51.498;11.960;2022-10-31T16:57:12;228.70;;;76.68;;